createdAt,value
2023-03-05T00:01:30.089Z,0.53
2023-03-05T00:03:58.112Z,0.55
2023-03-05T00:06:27.979Z,0.53
2023-03-05T00:08:56.883Z,0.51
2023-03-05T00:11:28.205Z,0.51
2023-03-05T00:13:56.998Z,0.49
2023-03-05T00:16:27.058Z,0.45
2023-03-05T00:18:59.670Z,0.44
2023-03-05T00:21:35.124Z,0.43
2023-03-05T00:24:05.750Z,0.40
2023-03-05T00:26:37.271Z,0.41
2023-03-05T00:29:06.405Z,0.41
2023-03-05T00:31:36.181Z,0.38
2023-03-05T00:34:07.808Z,0.37
2023-03-05T00:36:40.304Z,0.36
2023-03-05T00:39:07.811Z,0.33
2023-03-05T00:41:35.313Z,0.32
2023-03-05T00:44:03.225Z,0.31
2023-03-05T00:46:30.674Z,0.29
2023-03-05T00:48:58.345Z,0.26
2023-03-05T00:51:26.160Z,0.24
2023-03-05T00:53:53.427Z,0.22
2023-03-05T00:56:21.372Z,0.21
2023-03-05T00:58:48.943Z,0.22
2023-03-05T01:01:16.710Z,0.22
2023-03-05T01:03:44.124Z,0.18
2023-03-05T01:06:13.061Z,0.16
2023-03-05T01:08:40.555Z,0.14
2023-03-05T01:11:09.259Z,0.14
2023-03-05T01:13:37.224Z,0.10
2023-03-05T01:16:05.460Z,0.08
2023-03-05T01:18:32.987Z,0.11
2023-03-05T01:21:00.465Z,0.06
2023-03-05T01:23:27.917Z,0.05
2023-03-05T01:25:57.126Z,0.03
2023-03-05T01:28:24.980Z,0.04
2023-03-05T01:30:52.591Z,0.03
2023-03-05T01:33:20.102Z,0.03
2023-03-05T01:35:48.895Z,-0.02
2023-03-05T01:38:16.742Z,-0.03
2023-03-05T01:40:44.604Z,-0.05
2023-03-05T01:43:12.116Z,-0.05
2023-03-05T01:46:00.233Z,-0.07
2023-03-05T01:48:27.928Z,-0.13
2023-03-05T01:50:55.437Z,-0.14
2023-03-05T01:53:22.833Z,-0.16
2023-03-05T01:55:50.436Z,-0.19
2023-03-05T01:58:18.640Z,-0.19
2023-03-05T02:00:52.730Z,-0.17
2023-03-05T02:03:22.649Z,-0.20
2023-03-05T02:05:50.977Z,-0.24
2023-03-05T02:08:20.856Z,-0.21
2023-03-05T02:10:51.369Z,-0.21
2023-03-05T02:13:29.548Z,-0.21
2023-03-05T02:15:59.813Z,-0.26
2023-03-05T02:18:28.330Z,-0.26
2023-03-05T02:20:55.702Z,-0.29
2023-03-05T02:23:26.146Z,-0.30
2023-03-05T02:25:54.238Z,-0.34
2023-03-05T02:28:38.285Z,-0.34
2023-03-05T02:31:21.307Z,-0.33
2023-03-05T02:33:49.814Z,-0.35
2023-03-05T02:36:18.872Z,-0.39
2023-03-05T02:38:47.188Z,-0.38
2023-03-05T02:41:16.302Z,-0.40
2023-03-05T02:43:44.583Z,-0.40
2023-03-05T02:46:12.614Z,-0.41
2023-03-05T02:48:40.284Z,-0.43
2023-03-05T02:51:11.182Z,-0.46
2023-03-05T02:53:38.422Z,-0.47
2023-03-05T02:56:06.347Z,-0.48
2023-03-05T02:58:35.852Z,-0.48
2023-03-05T03:01:03.465Z,-0.51
2023-03-05T03:03:31.521Z,-0.50
2023-03-05T03:05:59.768Z,-0.50
2023-03-05T03:08:27.583Z,-0.50
2023-03-05T03:10:56.568Z,-0.55
2023-03-05T03:13:25.423Z,-0.55
2023-03-05T03:16:02.335Z,-0.52
2023-03-05T03:18:29.696Z,-0.53
2023-03-05T03:20:57.225Z,-0.54
2023-03-05T03:23:25.064Z,-0.57
2023-03-05T03:25:52.399Z,-0.54
2023-03-05T03:28:19.822Z,-0.53
2023-03-05T03:30:47.715Z,-0.58
2023-03-05T03:33:15.306Z,-0.60
2023-03-05T03:35:43.078Z,-0.59
2023-03-05T03:38:11.961Z,-0.61
2023-03-05T03:40:39.904Z,-0.62
2023-03-05T03:43:08.021Z,-0.62
2023-03-05T03:45:35.413Z,-0.65
2023-03-05T03:48:02.969Z,-0.65
2023-03-05T03:50:30.416Z,-0.65
2023-03-05T03:52:58.012Z,-0.67
2023-03-05T03:55:25.315Z,-0.66
2023-03-05T03:57:53.871Z,-0.65
2023-03-05T04:00:21.508Z,-0.69
2023-03-05T04:02:48.918Z,-0.68
2023-03-05T04:05:16.573Z,-0.72
2023-03-05T04:07:45.475Z,-0.69
2023-03-05T04:10:13.088Z,-0.70
2023-03-05T04:12:43.110Z,-0.69
2023-03-05T04:15:10.862Z,-0.71
2023-03-05T04:17:38.520Z,-0.71
2023-03-05T04:20:08.410Z,-0.77
2023-03-05T04:22:36.171Z,-0.79
2023-03-05T04:25:06.691Z,-0.76
2023-03-05T04:27:34.704Z,-0.71
2023-03-05T04:30:02.260Z,-0.74
2023-03-05T04:32:30.036Z,-0.79
2023-03-05T04:34:57.523Z,-0.78
2023-03-05T04:37:26.443Z,-0.77
2023-03-05T04:39:53.934Z,-0.79
2023-03-05T04:42:21.338Z,-0.80
2023-03-05T04:44:49.970Z,-0.79
2023-03-05T04:47:18.307Z,-0.80
2023-03-05T04:49:46.391Z,-0.81
2023-03-05T04:52:15.347Z,-0.81
2023-03-05T04:54:44.884Z,-0.85
2023-03-05T04:57:12.916Z,-0.92
2023-03-05T04:59:40.264Z,-0.96
2023-03-05T05:02:07.752Z,-0.99
2023-03-05T05:04:36.231Z,-1.02
2023-03-05T05:07:04.941Z,-1.08
2023-03-05T05:09:32.435Z,-1.14
2023-03-05T05:12:00.112Z,-1.12
2023-03-05T05:14:27.492Z,-1.13
2023-03-05T05:16:54.821Z,-1.18
2023-03-05T05:19:22.371Z,-1.16
2023-03-05T05:21:49.873Z,-1.15
2023-03-05T05:24:17.192Z,-1.10
2023-03-05T05:26:44.626Z,-1.10
2023-03-05T05:29:11.884Z,-1.10
2023-03-05T05:31:39.259Z,-1.07
2023-03-05T05:34:06.599Z,-1.05
2023-03-05T05:36:34.063Z,-1.02
2023-03-05T05:39:01.413Z,-1.01
2023-03-05T05:41:28.832Z,-1.01
2023-03-05T05:43:56.268Z,-1.01
2023-03-05T05:46:24.919Z,-0.98
2023-03-05T05:48:52.404Z,-0.93
2023-03-05T05:51:22.720Z,-0.96
2023-03-05T05:53:50.817Z,-1.00
2023-03-05T05:56:18.374Z,-0.96
2023-03-05T05:58:48.023Z,-0.92
2023-03-05T06:01:22.524Z,-0.87
2023-03-05T06:03:49.928Z,-0.85
2023-03-05T06:06:19.787Z,-0.83
2023-03-05T06:08:47.734Z,-0.80
2023-03-05T06:11:16.719Z,-0.74
2023-03-05T06:13:45.309Z,-0.72
2023-03-05T06:16:15.537Z,-0.68
2023-03-05T06:18:44.100Z,-0.66
2023-03-05T06:21:14.675Z,-0.62
2023-03-05T06:23:50.471Z,-0.60
2023-03-05T06:26:21.121Z,-0.55
2023-03-05T06:28:49.845Z,-0.52
2023-03-05T06:31:21.921Z,-0.50
2023-03-05T06:33:52.850Z,-0.49
2023-03-05T06:36:22.131Z,-0.48
2023-03-05T06:38:52.063Z,-0.47
2023-03-05T06:41:23.322Z,-0.46
2023-03-05T06:43:51.175Z,-0.45
2023-03-05T06:46:19.997Z,-0.43
2023-03-05T06:48:47.926Z,-0.36
2023-03-05T06:51:31.210Z,-0.41
2023-03-05T06:54:04.259Z,-0.59
2023-03-05T06:56:31.936Z,-0.66
2023-03-05T06:58:59.769Z,-0.65
2023-03-05T07:01:27.175Z,-0.65
2023-03-05T07:03:58.968Z,-0.63
2023-03-05T07:06:29.687Z,-0.70
2023-03-05T07:08:57.730Z,-0.77
2023-03-05T07:11:25.332Z,-0.80
2023-03-05T07:13:52.724Z,-0.82
2023-03-05T07:16:23.050Z,-0.84
2023-03-05T07:18:50.406Z,-0.89
2023-03-05T07:21:23.451Z,-0.90
2023-03-05T07:23:51.114Z,-0.93
2023-03-05T07:26:18.466Z,-0.91
2023-03-05T07:28:46.124Z,-0.90
2023-03-05T07:31:19.555Z,-0.89
2023-03-05T07:33:48.895Z,-0.83
2023-03-05T07:36:17.245Z,-0.76
2023-03-05T07:38:45.183Z,-0.66
2023-03-05T07:41:14.173Z,-0.53
2023-03-05T07:43:41.590Z,-0.51
2023-03-05T07:46:11.556Z,-0.52
2023-03-05T07:48:39.104Z,-0.46
2023-03-05T07:51:09.421Z,-0.45
2023-03-05T07:53:37.090Z,-0.40
2023-03-05T07:56:04.859Z,-0.25
2023-03-05T07:58:32.389Z,-0.24
2023-03-05T08:00:59.922Z,-0.22
2023-03-05T08:03:27.416Z,-0.30
2023-03-05T08:05:54.898Z,-0.39
2023-03-05T08:08:22.404Z,-0.47
2023-03-05T08:10:49.852Z,-0.61
2023-03-05T08:13:18.579Z,-0.64
2023-03-05T08:15:47.976Z,-0.65
2023-03-05T08:21:21.910Z,-0.54
2023-03-05T08:23:49.730Z,-0.40
2023-03-05T08:26:18.827Z,-0.18
2023-03-05T08:28:46.746Z,-0.13
2023-03-05T08:31:18.444Z,-0.02
2023-03-05T08:33:45.860Z,0.09
2023-03-05T08:36:14.623Z,0.10
2023-03-05T08:38:42.261Z,0.18
2023-03-05T08:41:09.363Z,0.20
2023-03-05T08:43:36.959Z,0.32
2023-03-05T08:46:07.386Z,0.32
2023-03-05T08:48:34.840Z,0.43
2023-03-05T08:51:11.507Z,0.45
2023-03-05T08:53:43.586Z,0.45
2023-03-05T08:56:13.088Z,0.32
2023-03-05T08:58:40.735Z,0.14
2023-03-05T09:01:07.854Z,0.04
2023-03-05T09:03:44.310Z,-0.04
2023-03-05T09:06:12.546Z,-0.06
2023-03-05T09:08:40.181Z,-0.01
2023-03-05T09:11:09.290Z,-0.22
2023-03-05T09:13:36.663Z,-0.35
2023-03-05T09:16:10.656Z,-0.40
2023-03-05T09:18:40.168Z,-0.47
2023-03-05T09:21:09.474Z,-0.54
2023-03-05T09:23:36.644Z,-0.61
2023-03-05T09:26:09.528Z,-0.65
2023-03-05T09:28:36.880Z,-0.61
2023-03-05T09:31:08.793Z,-0.54
2023-03-05T09:33:36.737Z,-0.57
2023-03-05T09:36:05.029Z,-0.35
2023-03-05T09:38:32.491Z,-0.17
2023-03-05T09:41:09.906Z,0.08
2023-03-05T09:44:08.886Z,0.30
2023-03-05T09:46:55.710Z,0.20
2023-03-05T09:50:00.512Z,0.38
2023-03-05T09:52:41.123Z,0.56
2023-03-05T09:55:33.491Z,0.80
2023-03-05T09:58:25.973Z,0.88
2023-03-05T10:01:01.604Z,0.92
2023-03-05T10:03:47.389Z,0.77
2023-03-05T10:06:26.952Z,0.75
2023-03-05T10:09:28.359Z,0.87
2023-03-05T10:12:16.627Z,1.05
2023-03-05T10:14:43.915Z,1.16
2023-03-05T10:17:38.189Z,1.04
2023-03-05T10:20:29.252Z,1.00
2023-03-05T10:23:04.592Z,1.21
2023-03-05T10:25:53.819Z,1.73
2023-03-05T10:28:34.410Z,2.42
2023-03-05T10:31:26.502Z,2.46
2023-03-05T10:34:32.705Z,2.37
2023-03-05T10:37:16.634Z,1.87
2023-03-05T10:40:05.482Z,2.04
2023-03-05T10:42:48.513Z,1.84
2023-03-05T10:45:22.995Z,1.88
2023-03-05T10:48:12.699Z,1.85
2023-03-05T10:50:48.358Z,1.79
2023-03-05T10:53:57.912Z,1.65
2023-03-05T10:56:27.864Z,1.73
2023-03-05T10:58:55.515Z,1.63
2023-03-05T11:01:28.336Z,1.69
2023-03-05T11:04:04.065Z,1.85
2023-03-05T11:06:45.790Z,1.83
2023-03-05T11:09:23.914Z,1.90
2023-03-05T11:12:09.070Z,1.92
2023-03-05T11:14:48.111Z,1.78
2023-03-05T11:17:48.851Z,1.60
2023-03-05T11:20:24.018Z,1.72
2023-03-05T11:23:05.291Z,1.93
2023-03-05T11:26:00.527Z,1.92
2023-03-05T11:28:40.589Z,1.81
2023-03-05T11:31:16.648Z,2.10
2023-03-05T11:34:23.742Z,2.15
2023-03-05T11:36:51.051Z,2.74
2023-03-05T11:39:23.750Z,2.63
2023-03-05T11:41:58.989Z,2.39
2023-03-05T11:44:42.491Z,2.32
2023-03-05T11:47:16.328Z,2.25
2023-03-05T11:49:54.395Z,2.14
2023-03-05T11:52:37.100Z,1.99
2023-03-05T11:55:16.580Z,1.93
2023-03-05T11:57:51.756Z,1.58
2023-03-05T12:00:27.484Z,1.39
2023-03-05T12:02:59.800Z,1.39
2023-03-05T12:05:29.057Z,1.35
2023-03-05T12:07:59.834Z,1.29
2023-03-05T12:10:27.751Z,1.27
2023-03-05T12:12:58.094Z,1.32
2023-03-05T12:15:35.229Z,1.35
2023-03-05T12:18:35.909Z,1.38
2023-03-05T12:21:26.673Z,1.34
2023-03-05T12:23:59.132Z,1.42
2023-03-05T12:27:00.044Z,1.39
2023-03-05T12:29:33.045Z,1.35
2023-03-05T12:32:01.867Z,1.38
2023-03-05T12:34:47.401Z,1.50
2023-03-05T12:37:20.488Z,1.50
2023-03-05T12:40:08.832Z,1.41
2023-03-05T12:42:41.947Z,1.35
2023-03-05T12:45:17.352Z,1.35
2023-03-05T12:47:56.577Z,1.31
2023-03-05T12:50:29.627Z,1.30
2023-03-05T12:52:59.993Z,1.36
2023-03-05T12:55:34.045Z,1.51
2023-03-05T12:58:15.892Z,1.69
2023-03-05T13:00:57.574Z,1.85
2023-03-05T13:03:30.816Z,2.10
2023-03-05T13:06:05.578Z,2.22
2023-03-05T13:08:37.899Z,1.91
2023-03-05T13:11:08.823Z,1.85
2023-03-05T13:13:41.517Z,1.74
2023-03-05T13:16:25.422Z,1.67
2023-03-05T13:18:56.571Z,1.63
2023-03-05T13:21:30.691Z,1.64
2023-03-05T13:24:00.566Z,1.59
2023-03-05T13:26:41.984Z,1.54
2023-03-05T13:29:28.241Z,1.42
2023-03-05T13:31:57.003Z,1.45
2023-03-05T13:34:46.315Z,1.43
2023-03-05T13:37:36.973Z,1.48
2023-03-05T13:40:25.401Z,1.50
2023-03-05T13:42:53.553Z,1.49
2023-03-05T13:45:29.282Z,1.41
2023-03-05T13:48:00.660Z,1.38
2023-03-05T13:50:31.165Z,1.26
2023-03-05T13:53:27.338Z,1.16
2023-03-05T13:55:59.395Z,1.10
2023-03-05T13:58:47.372Z,1.09
2023-03-05T14:01:38.165Z,1.06
2023-03-05T14:04:16.955Z,1.05
2023-03-05T14:07:01.511Z,0.93
2023-03-05T14:09:47.821Z,0.73
2023-03-05T14:12:35.658Z,0.53
2023-03-05T14:15:21.763Z,0.28
2023-03-05T14:17:49.688Z,0.22
2023-03-05T14:20:30.148Z,0.17
2023-03-05T14:23:02.189Z,0.27
2023-03-05T14:25:37.466Z,0.29
2023-03-05T14:28:16.979Z,0.30
2023-03-05T14:30:53.372Z,0.33
2023-03-05T14:33:29.515Z,0.30
2023-03-05T14:35:58.126Z,0.28
2023-03-05T14:38:30.088Z,0.29
2023-03-05T14:40:57.677Z,0.22
2023-03-05T14:43:27.551Z,0.24
2023-03-05T14:45:55.984Z,0.18
2023-03-05T14:48:23.657Z,0.10
2023-03-05T14:50:56.715Z,-0.11
2023-03-05T14:53:28.142Z,-0.26
2023-03-05T14:55:59.062Z,-0.34
2023-03-05T14:58:35.690Z,-0.38
2023-03-05T15:01:04.352Z,-0.40
2023-03-05T15:03:33.047Z,-0.36
2023-03-05T15:06:00.359Z,-0.36
2023-03-05T15:08:31.847Z,-0.37
2023-03-05T15:11:00.676Z,-0.34
2023-03-05T15:13:29.754Z,-0.31
2023-03-05T15:16:05.441Z,-0.27
2023-03-05T15:18:36.891Z,-0.16
2023-03-05T15:21:04.570Z,-0.09
2023-03-05T15:23:38.219Z,-0.05
2023-03-05T15:26:11.921Z,-0.07
2023-03-05T15:28:42.880Z,0.04
2023-03-05T15:31:11.476Z,0.04
2023-03-05T15:33:43.066Z,0.06
2023-03-05T15:36:15.029Z,0.06
2023-03-05T15:38:46.660Z,0.10
2023-03-05T15:41:15.312Z,0.04
2023-03-05T15:43:43.207Z,0.03
2023-03-05T15:46:10.607Z,0.12
2023-03-05T15:48:38.855Z,0.15
2023-03-05T15:51:07.859Z,0.29
2023-03-05T15:53:35.275Z,0.21
2023-03-05T15:56:02.389Z,0.18
2023-03-05T15:58:29.672Z,0.14
2023-03-05T16:01:02.612Z,0.15
2023-03-05T16:03:29.795Z,0.12
2023-03-05T16:05:57.055Z,0.16
2023-03-05T16:08:31.042Z,0.12
2023-03-05T16:10:58.560Z,0.09
2023-03-05T16:13:29.278Z,0.14
2023-03-05T16:15:58.208Z,0.10
2023-03-05T16:18:30.137Z,0.11
2023-03-05T16:20:57.719Z,0.13
2023-03-05T16:23:24.935Z,0.11
2023-03-05T16:25:52.415Z,0.09
2023-03-05T16:28:19.615Z,0.08
2023-03-05T16:30:56.137Z,0.09
2023-03-05T16:33:24.032Z,0.11
2023-03-05T16:36:07.665Z,0.12
2023-03-05T16:38:35.749Z,0.12
2023-03-05T16:41:08.376Z,0.10
2023-03-05T16:43:35.879Z,0.11
2023-03-05T16:46:03.279Z,0.12
2023-03-05T16:48:30.380Z,0.14
2023-03-05T16:50:58.000Z,0.17
2023-03-05T16:53:25.449Z,0.21
2023-03-05T16:55:52.797Z,0.23
2023-03-05T16:58:19.946Z,0.18
2023-03-05T17:00:47.190Z,0.22
2023-03-05T17:03:14.757Z,0.27
2023-03-05T17:05:41.971Z,0.30
2023-03-05T17:08:09.219Z,0.28
2023-03-05T17:10:36.305Z,0.32
2023-03-05T17:13:03.634Z,0.37
2023-03-05T17:15:31.412Z,0.38
2023-03-05T17:18:01.272Z,0.42
2023-03-05T17:20:28.368Z,0.45
2023-03-05T17:22:55.850Z,0.45
2023-03-05T17:25:22.998Z,0.43
2023-03-05T17:27:50.277Z,0.43
2023-03-05T17:30:17.466Z,0.34
2023-03-05T17:32:44.697Z,0.29
2023-03-05T17:35:23.616Z,0.22
2023-03-05T17:37:54.757Z,0.16
2023-03-05T17:40:25.342Z,0.16
2023-03-05T17:42:52.471Z,0.14
2023-03-05T17:45:19.430Z,0.07
2023-03-05T17:47:46.595Z,0.01
2023-03-05T17:50:14.244Z,-0.02
2023-03-05T17:52:41.632Z,-0.06
2023-03-05T17:55:11.137Z,-0.07
2023-03-05T17:57:41.576Z,-0.09
2023-03-05T18:00:18.743Z,-0.03
2023-03-05T18:02:47.717Z,0.04
2023-03-05T18:05:16.063Z,0.07
2023-03-05T18:07:43.437Z,0.10
2023-03-05T18:10:12.339Z,0.09
2023-03-05T18:12:40.498Z,0.09
2023-03-05T18:15:10.406Z,0.10
2023-03-05T18:17:38.127Z,0.12
2023-03-05T18:20:09.286Z,0.11
2023-03-05T18:22:38.896Z,0.07
2023-03-05T18:25:09.530Z,0.05
2023-03-05T18:27:36.705Z,0.06
2023-03-05T18:30:06.129Z,0.04
2023-03-05T18:32:33.533Z,-0.06
2023-03-05T18:35:00.853Z,-0.16
2023-03-05T18:37:27.950Z,-0.31
2023-03-05T18:39:55.460Z,-0.41
2023-03-05T18:42:23.017Z,-0.50
2023-03-05T18:44:54.012Z,-0.55
2023-03-05T18:47:21.066Z,-0.59
2023-03-05T18:49:48.155Z,-0.62
2023-03-05T18:52:15.275Z,-0.64
2023-03-05T18:54:42.541Z,-0.61
2023-03-05T18:57:09.786Z,-0.66
2023-03-05T18:59:36.855Z,-0.66
2023-03-05T19:02:04.190Z,-0.69
2023-03-05T19:04:31.425Z,-0.68
2023-03-05T19:07:02.128Z,-0.67
2023-03-05T19:09:47.705Z,-0.67
2023-03-05T19:12:15.444Z,-0.65
2023-03-05T19:14:42.577Z,-0.67
2023-03-05T19:17:09.573Z,-0.68
2023-03-05T19:19:36.997Z,-0.68
2023-03-05T19:22:04.103Z,-0.63
2023-03-05T19:24:31.453Z,-0.66
2023-03-05T19:27:01.012Z,-0.68
2023-03-05T19:29:33.058Z,-0.70
2023-03-05T19:32:00.573Z,-0.64
2023-03-05T19:34:28.149Z,-0.66
2023-03-05T19:36:57.321Z,-0.67
2023-03-05T19:39:24.508Z,-0.65
2023-03-05T19:41:54.593Z,-0.61
2023-03-05T19:44:30.760Z,-0.59
2023-03-05T19:47:01.358Z,-0.57
2023-03-05T19:49:31.385Z,-0.55
2023-03-05T19:51:58.588Z,-0.54
2023-03-05T19:54:27.245Z,-0.54
2023-03-05T19:56:55.889Z,-0.55
2023-03-05T19:59:23.407Z,-0.57
2023-03-05T20:01:51.859Z,-0.57
2023-03-05T20:04:25.487Z,-0.58
2023-03-05T20:06:52.604Z,-0.58
2023-03-05T20:09:20.253Z,-0.57
2023-03-05T20:11:47.896Z,-0.53
2023-03-05T20:14:15.339Z,-0.53
2023-03-05T20:16:43.456Z,-0.53
2023-03-05T20:19:18.639Z,-0.51
2023-03-05T20:21:46.082Z,-0.49
2023-03-05T20:24:16.608Z,-0.49
2023-03-05T20:26:45.679Z,-0.53
2023-03-05T20:29:17.492Z,-0.51
2023-03-05T20:31:46.445Z,-0.50
2023-03-05T20:34:16.892Z,-0.50
2023-03-05T20:36:44.381Z,-0.50
2023-03-05T20:39:11.457Z,-0.52
2023-03-05T20:41:39.551Z,-0.48
2023-03-05T20:44:08.277Z,-0.50
2023-03-05T20:46:41.935Z,-0.47
2023-03-05T20:49:09.378Z,-0.36
2023-03-05T20:51:38.417Z,-0.33
2023-03-05T20:54:08.824Z,-0.26
2023-03-05T20:56:36.910Z,-0.13
2023-03-05T20:59:07.480Z,-0.27
2023-03-05T21:01:37.738Z,-0.13
2023-03-05T21:04:06.056Z,-0.11
2023-03-05T21:06:33.646Z,-0.21
2023-03-05T21:09:00.797Z,-0.24
2023-03-05T21:11:28.220Z,-0.23
2023-03-05T21:13:55.387Z,-0.23
2023-03-05T21:16:25.419Z,-0.25
2023-03-05T21:18:53.888Z,-0.15
2023-03-05T21:21:24.113Z,-0.11
2023-03-05T21:23:52.103Z,-0.12
2023-03-05T21:26:20.298Z,-0.10
2023-03-05T21:28:47.962Z,-0.06
2023-03-05T21:31:20.072Z,-0.03
2023-03-05T21:33:54.180Z,-0.09
2023-03-05T21:36:21.302Z,0.03
2023-03-05T21:38:49.035Z,0.02
2023-03-05T21:41:18.086Z,0.00
2023-03-05T21:43:45.268Z,-0.02
2023-03-05T21:46:12.411Z,-0.07
2023-03-05T21:48:39.531Z,-0.14
2023-03-05T21:51:08.584Z,-0.15
2023-03-05T21:53:35.860Z,-0.11
2023-03-05T21:56:21.083Z,-0.04
2023-03-05T21:58:49.447Z,-0.03
2023-03-05T22:01:19.447Z,0.04
2023-03-05T22:03:50.734Z,0.06
2023-03-05T22:06:20.132Z,0.08
2023-03-05T22:08:47.556Z,0.09
2023-03-05T22:11:18.192Z,0.11
2023-03-05T22:13:45.845Z,0.13
2023-03-05T22:16:21.691Z,0.10
2023-03-05T22:18:48.839Z,0.08
2023-03-05T22:21:18.833Z,0.10
2023-03-05T22:23:46.261Z,0.08
2023-03-05T22:26:15.127Z,0.15
2023-03-05T22:28:42.620Z,0.14
2023-03-05T22:31:10.402Z,0.10
2023-03-05T22:33:37.698Z,0.10
2023-03-05T22:36:11.984Z,0.10
2023-03-05T22:38:39.584Z,0.13
2023-03-05T22:41:09.047Z,0.07
2023-03-05T22:43:37.170Z,0.06
2023-03-05T22:46:25.608Z,0.05
2023-03-05T22:48:54.410Z,0.07
2023-03-05T22:51:23.095Z,0.06
2023-03-05T22:53:50.271Z,0.08
2023-03-05T22:56:19.711Z,0.05
2023-03-05T22:58:47.932Z,0.10
2023-03-05T23:01:24.749Z,0.08
2023-03-05T23:04:00.967Z,0.10
2023-03-05T23:06:29.791Z,0.09
2023-03-05T23:08:57.744Z,0.05
2023-03-05T23:11:25.251Z,0.09
2023-03-05T23:13:52.312Z,0.09
2023-03-05T23:16:22.454Z,0.08
2023-03-05T23:18:51.880Z,0.11
2023-03-05T23:21:20.626Z,0.13
2023-03-05T23:23:47.743Z,0.18
2023-03-05T23:26:16.136Z,0.17
2023-03-05T23:28:43.219Z,0.17
2023-03-05T23:31:11.653Z,0.13
2023-03-05T23:33:38.845Z,0.14
2023-03-05T23:36:06.962Z,0.15
2023-03-05T23:38:34.990Z,0.12
2023-03-05T23:41:08.535Z,0.11
2023-03-05T23:43:35.819Z,0.15
2023-03-05T23:46:10.767Z,0.15
2023-03-05T23:48:37.852Z,0.17
2023-03-05T23:51:09.544Z,0.16
2023-03-05T23:53:37.350Z,0.11
2023-03-05T23:56:12.233Z,0.10
2023-03-05T23:58:39.717Z,0.10
